Prairie City, OR (97869)

5:20 AM PDT on September 01, 2014 (GMT -0700)
Grant County Regional | Change Station
CLOSE
Current Station
Airport
Location: Grant County,
Elevation: 3698 ft
Nearby Weather Stations

Elev 3698 ft 44.40 °N, 118.96 °W | Updated 5 minutes ago

Clear
Clear
47 °F
Feels Like 47 °F
N
0
Wind Variable Wind from North

Today
High -- | Low -- °F
--% Chance of Precip.
Yesterday
High -- | Low -- °F
Precip. -- in
6:17 AM 7:31 PM
Waxing Crescent, 40% visible
Pressure 30.12 in
Visibility 10.0 miles
Clouds Clear
Dew Point 42 °F
Humidity 83%
Rainfall 0.00 in
Snow Depth 0 in , 0 in
UV 0 out of 12
Pollen 5.10 out of 12
Air Quality Not available.
Flu Activity Not available.
METAR KGCD 011215Z AUTO 00000KT 10SM CLR 08/05 A3012 RMK AO2 T00810053

More Conditions Fewer Conditions

Pressure 30.12 in
Visibility 10.0 miles
Clouds Clear
Dew Point 42 °F
Humidity 83%
Rainfall 0.00 in
Snow Depth 0 in , 0 in
UV 0 out of 12
Pollen 5.10 out of 12
Air Quality Not available.
Flu Activity Not available.
METAR KGCD 011215Z AUTO 00000KT 10SM CLR 08/05 A3012 RMK AO2 T00810053

More Conditions Fewer Conditions

10-Day Weather Forecast

Almanac

Astronomy

Sep. 01, 2014 Rise Set
Actual Time 6:17 AM PDT 7:31 PM PDT
Civil Twilight 5:47 AM PDT 8:00 PM PDT
Nautical Twilight 5:11 AM PDT 8:36 PM PDT
Astronomical Twilight 4:33 AM PDT 9:14 PM PDT
Moon 1:24 PM PDT 11:20 PM PDT
Length of Visible Light 14h 13m
Length of Day
13h 13m
Tomorrow will be 2m 57s shorter.
Waxing Crescent, 40% of the Moon is Illuminated
Today
Waxing Crescent
Sep 2
First Quarter
Sep 8
Full
Sep 15
Last Quarter
Sep 24
New

Today's Extremes

State Highs State Lows

Community

WunderPhotos

Upload Photos

1,749,196 photos uploaded!

Nearby

Snow Depth

Station Depth Elevation
Blue Mountain Spring 0 in 5900 ft
Lake Creek R.S. 0 in 5200 ft
Gold Center 0 in 5340 ft
Rock Springs 0 in 5550 ft
Bourne 1 in 5800 ft

Earthquake Activity

City Distance Mag. Time & Date
No recent earthquake activity has been reported nearby.
Minimum magnitude displayed is 2.5.

Coastal Water Temperatures

Place Temperature
No Stations Reporting

Nearby Weather Stations